Time;durP1;ratioP1;P1;durP2;ratioP2;P2;SDS_P1;SDS_P2;PMS_P1;PMS_P2;Temp;Humidity;BMP_temperature;BMP_pressure;BME280_temperature;BME280_humidity;BME280_pressure;Samples;Min_cycle;Max_cycle;Signal;HPM_P1;HPM_P2
2023/07/16 00:00:57;;;;;;;4.13;2.65;;;19.20;99.90;;;;;;5036899;28;20190;-81
2023/07/16 00:03:23;;;;;;;8.30;2.72;;;19.20;99.90;;;;;;5037090;28;20195;-81
2023/07/16 00:05:58;;;;;;;4.90;3.08;;;19.20;99.90;;;;;;5041101;28;20217;-81
2023/07/16 00:08:27;;;;;;;6.35;3.05;;;19.20;99.90;;;;;;5045752;28;20213;-81
2023/07/16 00:11:29;;;;;;;3.75;2.50;;;19.30;99.90;;;;;;5059429;28;20545;-81
2023/07/16 00:14:19;;;;;;;6.45;2.95;;;19.40;99.90;;;;;;5057336;28;20654;-80
2023/07/16 00:16:58;;;;;;;;;;;;;;;;;;;;;
2023/07/16 00:19:30;;;;;;;5.07;2.88;;;19.50;99.90;;;;;;5058657;28;20218;-81
2023/07/16 00:22:05;;;;;;;4.55;3.08;;;19.70;99.90;;;;;;5055824;28;20576;-81
2023/07/16 00:24:31;;;;;;;5.55;3.10;;;19.80;99.90;;;;;;5055592;28;20182;-80
2023/07/16 00:27:00;;;;;;;5.18;2.90;;;19.90;99.90;;;;;;5057350;28;20206;-80
2023/07/16 00:29:28;;;;;;;7.88;2.67;;;19.90;99.90;;;;;;5056954;28;20186;-80
2023/07/16 00:31:58;;;;;;;4.47;3.05;;;20.00;99.90;;;;;;5056120;28;20174;-81
2023/07/16 00:34:34;;;;;;;3.78;2.53;;;19.90;99.90;;;;;;5055574;28;20163;-80
2023/07/16 00:37:05;;;;;;;5.60;3.05;;;19.90;99.90;;;;;;5057124;28;20241;-80
2023/07/16 00:39:40;;;;;;;5.65;2.53;;;19.90;99.90;;;;;;5038843;28;20183;-81
2023/07/16 00:42:06;;;;;;;7.43;2.70;;;20.00;99.90;;;;;;5036738;28;20197;-80
2023/07/16 00:44:32;;;;;;;3.63;2.42;;;19.90;99.90;;;;;;5036048;28;20582;-81
2023/07/16 00:47:09;;;;;;;6.88;2.50;;;19.90;99.90;;;;;;5035406;28;20215;-81
2023/07/16 00:49:36;;;;;;;3.92;2.30;;;19.90;99.90;;;;;;5035984;28;20654;-81
2023/07/16 00:52:03;;;;;;;6.60;2.70;;;19.90;99.90;;;;;;5034875;28;20181;-81
2023/07/16 00:54:35;;;;;;;4.80;2.50;;;19.80;99.90;;;;;;5036208;28;20225;-81
2023/07/16 00:57:00;;;;;;;6.97;2.78;;;19.80;99.90;;;;;;5035745;28;20203;-81
2023/07/16 00:59:29;;;;;;;6.32;2.50;;;19.80;99.90;;;;;;5036615;28;20225;-81
2023/07/16 01:01:55;;;;;;;7.55;2.72;;;19.70;99.90;;;;;;5035499;28;20233;-81
2023/07/16 01:04:30;;;;;;;4.70;2.67;;;19.70;99.90;;;;;;5034795;28;20187;-81
2023/07/16 01:07:06;;;;;;;5.35;2.63;;;19.60;99.90;;;;;;5036289;28;20222;-81
2023/07/16 01:09:33;;;;;;;4.93;2.90;;;19.60;99.90;;;;;;5036051;28;20250;-81
2023/07/16 01:12:02;;;;;;;4.85;2.83;;;19.60;99.90;;;;;;5034458;28;20550;-81
2023/07/16 01:14:38;;;;;;;4.32;2.83;;;19.50;99.90;;;;;;5034769;28;20216;-80
2023/07/16 01:17:13;;;;;;;4.50;2.67;;;19.50;99.90;;;;;;5034534;28;20194;-81
2023/07/16 01:19:50;;;;;;;7.03;2.47;;;19.50;99.90;;;;;;5035160;28;20639;-81
2023/07/16 01:22:49;;;;;;;3.45;2.90;;;19.40;99.90;;;;;;5035158;28;20170;-81
2023/07/16 01:25:31;;;;;;;5.38;2.40;;;19.40;99.90;;;;;;5036383;28;20159;-81
2023/07/16 01:28:16;;;;;;;4.50;2.80;;;19.40;99.90;;;;;;5037551;28;20206;-80
2023/07/16 01:30:57;;;;;;;4.65;3.13;;;19.40;99.90;;;;;;5044445;28;20162;-80
2023/07/16 01:33:58;;;;;;;6.38;2.40;;;19.30;99.90;;;;;;5043163;28;20171;-80
2023/07/16 01:36:32;;;;;;;5.50;2.42;;;19.30;99.90;;;;;;5050347;28;20187;-81
2023/07/16 01:38:57;;;;;;;6.35;2.78;;;19.30;99.90;;;;;;5049709;28;20185;-81
2023/07/16 01:41:27;;;;;;;3.65;2.60;;;19.20;99.90;;;;;;5045229;28;20195;-81
2023/07/16 01:43:52;;;;;;;6.75;2.42;;;19.10;99.90;;;;;;5037729;28;20203;-81
2023/07/16 01:46:19;;;;;;;4.70;2.88;;;19.10;99.90;;;;;;5037153;28;20543;-81
2023/07/16 01:48:47;;;;;;;7.68;4.15;;;19.00;99.90;;;;;;5047597;28;20555;-79
2023/07/16 01:51:14;;;;;;;5.95;2.80;;;19.00;99.90;;;;;;5049916;28;20171;-80
2023/07/16 01:53:40;;;;;;;7.65;2.60;;;18.80;99.90;;;;;;5047520;28;20201;-80
2023/07/16 01:56:06;;;;;;;4.55;2.35;;;18.80;99.90;;;;;;5048877;28;20174;-79
2023/07/16 01:58:32;;;;;;;7.22;2.58;;;18.80;99.90;;;;;;5050449;28;20245;-80
2023/07/16 02:00:58;;;;;;;4.18;2.63;;;18.70;99.90;;;;;;5051072;28;20183;-80
2023/07/16 02:03:24;;;;;;;5.30;2.60;;;18.70;99.90;;;;;;5050974;28;20532;-79
2023/07/16 02:05:50;;;;;;;5.57;2.60;;;18.60;99.90;;;;;;5051729;28;20202;-80
2023/07/16 02:08:17;;;;;;;5.32;2.75;;;18.60;99.90;;;;;;5049895;28;20218;-79
2023/07/16 02:10:44;;;;;;;5.43;3.13;;;18.60;99.90;;;;;;5050349;28;20238;-79
2023/07/16 02:13:09;;;;;;;4.80;2.72;;;18.60;99.90;;;;;;5050516;28;20175;-80
2023/07/16 02:15:35;;;;;;;7.05;2.95;;;18.60;99.90;;;;;;5050034;28;20182;-79
2023/07/16 02:18:01;;;;;;;5.03;2.97;;;18.60;99.90;;;;;;5050096;28;20202;-80
2023/07/16 02:20:27;;;;;;;3.90;2.25;;;18.60;99.90;;;;;;5050141;28;20183;-80
2023/07/16 02:22:52;;;;;;;4.43;2.58;;;18.50;99.90;;;;;;5050761;28;20692;-80
2023/07/16 02:25:18;;;;;;;4.47;2.88;;;18.50;99.90;;;;;;5050744;28;20179;-79
2023/07/16 02:27:44;;;;;;;8.07;3.33;;;18.50;99.90;;;;;;5048513;28;20211;-79
2023/07/16 02:30:10;;;;;;;4.85;2.90;;;18.40;99.90;;;;;;5050278;28;20175;-79
2023/07/16 02:32:36;;;;;;;6.45;3.00;;;18.40;99.90;;;;;;5048737;28;20179;-79
2023/07/16 02:35:03;;;;;;;7.30;3.55;;;18.40;99.90;;;;;;5048236;28;20175;-79
2023/07/16 02:37:29;;;;;;;6.10;2.97;;;18.40;99.90;;;;;;5048035;28;20231;-79
2023/07/16 02:39:54;;;;;;;5.18;3.63;;;18.40;99.90;;;;;;5049145;28;20175;-80
2023/07/16 02:42:20;;;;;;;6.22;3.08;;;18.40;99.90;;;;;;5050428;28;20179;-79
2023/07/16 02:44:46;;;;;;;6.60;3.42;;;18.40;99.90;;;;;;5048886;28;20175;-79
2023/07/16 02:47:12;;;;;;;6.78;3.40;;;18.40;99.90;;;;;;5048706;28;20250;-79
2023/07/16 02:49:38;;;;;;;6.97;3.10;;;18.50;99.90;;;;;;5048405;28;20206;-79
2023/07/16 02:52:05;;;;;;;6.57;3.33;;;18.50;99.90;;;;;;5049627;28;20627;-79
2023/07/16 02:54:31;;;;;;;3.85;2.97;;;18.50;99.90;;;;;;5047756;28;20319;-79
2023/07/16 02:56:56;;;;;;;6.20;2.90;;;18.50;99.90;;;;;;5048421;28;20687;-79
2023/07/16 02:59:22;;;;;;;9.50;3.50;;;18.50;99.90;;;;;;5038537;28;20241;-80
2023/07/16 03:01:48;;;;;;;9.80;3.72;;;18.50;99.90;;;;;;5037568;28;20266;-79
2023/07/16 03:04:13;;;;;;;7.15;3.55;;;18.50;99.90;;;;;;5039239;28;20171;-79
2023/07/16 03:06:39;;;;;;;6.45;3.05;;;18.50;99.90;;;;;;5037296;28;20541;-79
2023/07/16 03:09:05;;;;;;;7.30;3.08;;;18.50;99.90;;;;;;5039169;28;20208;-80
2023/07/16 03:11:31;;;;;;;7.45;3.22;;;18.50;99.90;;;;;;5041888;28;20182;-80
2023/07/16 03:13:56;;;;;;;6.63;2.90;;;18.50;99.90;;;;;;5040784;28;20186;-80
2023/07/16 03:16:22;;;;;;;8.02;3.03;;;18.40;99.90;;;;;;5038838;28;20177;-80
2023/07/16 03:18:48;;;;;;;4.10;2.95;;;18.40;99.90;;;;;;5040172;28;20218;-80
2023/07/16 03:21:13;;;;;;;4.93;2.70;;;18.40;99.90;;;;;;5038929;28;20258;-80
2023/07/16 03:23:39;;;;;;;7.50;2.80;;;18.30;99.90;;;;;;5040182;28;20273;-80
2023/07/16 03:26:05;;;;;;;6.28;2.80;;;18.30;99.90;;;;;;5039608;28;20702;-80
2023/07/16 03:28:31;;;;;;;6.13;2.47;;;18.30;99.90;;;;;;5038191;28;20563;-80
2023/07/16 03:30:56;;;;;;;4.75;2.38;;;18.40;99.90;;;;;;5039183;28;20647;-80
2023/07/16 03:33:22;;;;;;;5.20;2.60;;;18.40;99.90;;;;;;5038083;28;20563;-80
2023/07/16 03:35:49;;;;;;;6.78;2.63;;;18.40;99.90;;;;;;5037869;28;20539;-80
2023/07/16 03:38:15;;;;;;;6.13;3.10;;;18.50;99.90;;;;;;5046305;28;20207;-80
2023/07/16 03:40:47;;;;;;;6.90;2.70;;;18.60;99.90;;;;;;5058814;28;20213;-79
2023/07/16 03:43:12;;;;;;;5.68;3.05;;;18.60;99.90;;;;;;5057267;28;20265;-80
2023/07/16 03:45:38;;;;;;;5.88;2.40;;;18.50;99.90;;;;;;5057834;28;20268;-80
2023/07/16 03:48:04;;;;;;;9.60;2.92;;;18.50;99.90;;;;;;5057280;28;20232;-81
2023/07/16 03:50:30;;;;;;;7.20;2.80;;;18.40;99.90;;;;;;5059020;28;20170;-82
2023/07/16 03:52:56;;;;;;;5.85;3.13;;;18.40;99.90;;;;;;5059714;28;20543;-80
2023/07/16 03:55:22;;;;;;;8.90;2.70;;;18.30;99.90;;;;;;5057407;28;20174;-81
2023/07/16 03:57:48;;;;;;;6.97;2.75;;;18.30;99.90;;;;;;5056393;28;20289;-83
2023/07/16 04:00:14;;;;;;;6.85;3.08;;;18.30;99.90;;;;;;5057490;28;20642;-81
2023/07/16 04:02:39;;;;;;;7.03;2.53;;;18.30;99.90;;;;;;5058053;28;20183;-80
2023/07/16 04:05:06;;;;;;;7.07;2.80;;;18.30;99.90;;;;;;5059654;28;20181;-80
2023/07/16 04:07:31;;;;;;;8.77;3.60;;;18.30;99.90;;;;;;5055335;28;20578;-80
2023/07/16 04:09:57;;;;;;;6.78;2.70;;;18.20;99.90;;;;;;5037906;28;20183;-80
2023/07/16 04:12:23;;;;;;;6.38;2.70;;;18.20;99.90;;;;;;5037972;28;20179;-80
2023/07/16 04:14:49;;;;;;;5.82;3.10;;;18.20;99.90;;;;;;5037625;28;20269;-80
2023/07/16 04:17:14;;;;;;;8.55;3.17;;;18.20;99.90;;;;;;5038949;28;20607;-79
2023/07/16 04:19:40;;;;;;;8.73;3.15;;;18.10;99.90;;;;;;5036349;28;20179;-80
2023/07/16 04:22:06;;;;;;;9.50;3.42;;;18.20;99.90;;;;;;5038226;28;20183;-79
2023/07/16 04:24:32;;;;;;;10.13;3.33;;;18.10;99.90;;;;;;5039176;28;20171;-80
2023/07/16 04:27:00;;;;;;;6.78;2.80;;;18.10;99.90;;;;;;5038354;28;20215;-80
2023/07/16 04:29:26;;;;;;;7.43;3.35;;;18.10;99.90;;;;;;5039249;28;20163;-80
2023/07/16 04:31:52;;;;;;;8.52;3.38;;;18.10;99.90;;;;;;5037519;28;20182;-79
2023/07/16 04:34:17;;;;;;;9.55;3.25;;;18.10;99.90;;;;;;5038924;28;20249;-82
2023/07/16 04:36:43;;;;;;;7.97;3.55;;;18.10;99.90;;;;;;5039411;28;20266;-80
2023/07/16 04:39:09;;;;;;;7.75;3.10;;;18.10;99.90;;;;;;5054809;28;20209;-79
2023/07/16 04:41:35;;;;;;;8.57;2.85;;;18.10;99.90;;;;;;5057758;28;20178;-79
2023/07/16 04:44:01;;;;;;;6.35;3.20;;;18.10;99.90;;;;;;5059845;28;20189;-80
2023/07/16 04:46:26;;;;;;;9.25;3.13;;;18.10;99.90;;;;;;5060718;28;20261;-80
2023/07/16 04:48:53;;;;;;;4.53;2.40;;;18.10;99.90;;;;;;5060077;28;20182;-80
2023/07/16 04:51:19;;;;;;;13.68;3.88;;;18.10;99.90;;;;;;5057352;28;20671;-80
2023/07/16 04:53:45;;;;;;;8.07;3.00;;;18.10;99.90;;;;;;5059472;28;20163;-79
2023/07/16 04:56:14;;;;;;;5.35;3.13;;;18.10;99.90;;;;;;5059572;28;20175;-79
2023/07/16 04:58:41;;;;;;;7.20;3.13;;;18.20;99.90;;;;;;5059426;28;20222;-79
2023/07/16 05:01:08;;;;;;;10.25;3.58;;;18.10;99.90;;;;;;5056989;28;20257;-80
2023/07/16 05:03:34;;;;;;;6.95;2.97;;;18.20;99.90;;;;;;5056309;28;20186;-79
2023/07/16 05:06:00;;;;;;;10.07;3.17;;;18.20;99.90;;;;;;5057518;28;20167;-80
2023/07/16 05:08:26;;;;;;;8.23;2.90;;;18.20;99.90;;;;;;5057460;28;20301;-80
2023/07/16 05:10:52;;;;;;;6.88;3.15;;;18.20;99.90;;;;;;5057922;28;20205;-80
2023/07/16 05:13:18;;;;;;;10.15;3.50;;;18.20;99.90;;;;;;5055866;28;20190;-80
2023/07/16 05:15:44;;;;;;;6.35;3.17;;;18.20;99.90;;;;;;5057165;28;20209;-80
2023/07/16 05:18:10;;;;;;;6.57;3.17;;;18.20;99.90;;;;;;5056161;28;20277;-80
2023/07/16 05:20:36;;;;;;;12.48;4.25;;;18.20;99.90;;;;;;5057811;28;20183;-79
2023/07/16 05:23:01;;;;;;;7.00;3.80;;;18.30;99.90;;;;;;5056468;28;20205;-79
2023/07/16 05:25:27;;;;;;;7.13;3.33;;;18.30;99.90;;;;;;5057234;28;20189;-80
2023/07/16 05:27:53;;;;;;;9.40;4.28;;;18.30;99.90;;;;;;5057448;28;20240;-79
2023/07/16 05:30:19;;;;;;;11.30;3.80;;;18.40;99.90;;;;;;5056071;28;20170;-79
2023/07/16 05:32:45;;;;;;;9.70;3.78;;;18.50;99.90;;;;;;5056682;28;20273;-80
2023/07/16 05:35:10;;;;;;;8.15;3.65;;;18.60;99.90;;;;;;5056705;28;20220;-80
2023/07/16 05:37:36;;;;;;;6.05;3.88;;;18.50;99.90;;;;;;5053103;28;20203;-79
2023/07/16 05:40:03;;;;;;;7.53;4.10;;;18.50;99.90;;;;;;5036927;28;20175;-77
2023/07/16 05:42:29;;;;;;;8.88;3.85;;;18.50;99.90;;;;;;5033625;28;20187;-78
2023/07/16 05:44:55;;;;;;;6.35;3.55;;;18.60;99.90;;;;;;5034193;28;20186;-78
2023/07/16 05:47:20;;;;;;;6.18;3.38;;;18.60;99.90;;;;;;5034147;28;20233;-78
2023/07/16 05:49:46;;;;;;;11.27;3.78;;;18.70;99.90;;;;;;5034636;28;20639;-79
2023/07/16 05:52:12;;;;;;;10.93;4.47;;;18.70;99.90;;;;;;5034487;28;20171;-78
2023/07/16 05:54:38;;;;;;;7.45;3.50;;;18.70;99.90;;;;;;5034202;28;20179;-78
2023/07/16 05:57:04;;;;;;;7.03;3.58;;;18.80;99.90;;;;;;5035440;28;20187;-78
2023/07/16 05:59:34;;;;;;;9.48;3.30;;;18.80;99.90;;;;;;5035469;28;20160;-78
2023/07/16 06:02:00;;;;;;;9.27;3.72;;;18.90;99.90;;;;;;5035171;28;20205;-78
2023/07/16 06:04:26;;;;;;;6.90;3.45;;;19.00;99.90;;;;;;5036130;28;20181;-78
2023/07/16 06:06:51;;;;;;;9.23;3.65;;;19.10;99.90;;;;;;5034883;28;20305;-79
2023/07/16 06:09:17;;;;;;;7.85;4.10;;;19.10;99.90;;;;;;5034789;28;20191;-78
2023/07/16 06:11:47;;;;;;;6.18;3.33;;;19.00;99.90;;;;;;5034167;28;20179;-78
2023/07/16 06:14:13;;;;;;;8.93;3.67;;;19.10;99.90;;;;;;5033234;28;20179;-78
2023/07/16 06:16:39;;;;;;;12.32;3.90;;;19.20;99.90;;;;;;5033694;28;20293;-78
2023/07/16 06:19:04;;;;;;;8.43;3.75;;;19.30;99.90;;;;;;5033097;28;20171;-78
2023/07/16 06:21:30;;;;;;;8.35;3.95;;;19.40;99.90;;;;;;5034669;28;20171;-79
2023/07/16 06:23:56;;;;;;;10.35;3.90;;;19.60;99.90;;;;;;5037517;28;20172;-79
2023/07/16 06:26:22;;;;;;;9.55;4.70;;;19.60;99.90;;;;;;5035783;28;20171;-77
2023/07/16 06:28:50;;;;;;;12.32;4.80;;;19.40;99.90;;;;;;5034199;28;20249;-77
2023/07/16 06:31:19;;;;;;;7.15;4.45;;;19.10;99.90;;;;;;5032861;28;20263;-78
2023/07/16 06:33:49;;;;;;;13.38;4.82;;;18.90;99.90;;;;;;5034249;28;20167;-78
2023/07/16 06:36:15;;;;;;;11.27;4.57;;;19.00;99.90;;;;;;5034332;28;20198;-78
2023/07/16 06:38:41;;;;;;;14.57;5.13;;;19.10;99.90;;;;;;5033750;28;20207;-77
2023/07/16 06:41:07;;;;;;;13.85;4.90;;;19.20;99.90;;;;;;5034452;28;20168;-77
2023/07/16 06:43:32;;;;;;;11.18;4.97;;;19.20;99.90;;;;;;5036955;28;20537;-79
2023/07/16 06:45:58;;;;;;;8.55;4.78;;;19.40;99.90;;;;;;5038856;28;20164;-82
2023/07/16 06:48:24;;;;;;;13.65;5.32;;;19.40;99.90;;;;;;5036536;28;20214;-80
2023/07/16 06:50:51;;;;;;;10.63;5.20;;;19.30;99.90;;;;;;5038692;28;20179;-80
2023/07/16 06:53:16;;;;;;;7.90;4.75;;;19.30;99.90;;;;;;5039678;28;20148;-80
2023/07/16 06:55:42;;;;;;;9.88;4.93;;;19.40;99.90;;;;;;5039169;28;20536;-81
2023/07/16 06:58:13;;;;;;;10.95;5.20;;;19.50;99.90;;;;;;5036984;28;20214;-82
2023/07/16 07:00:39;;;;;;;11.88;5.30;;;19.30;99.90;;;;;;5037827;28;20175;-80
2023/07/16 07:03:05;;;;;;;8.82;4.90;;;19.40;99.90;;;;;;5037984;28;20156;-80
2023/07/16 07:05:31;;;;;;;15.02;5.60;;;19.30;99.90;;;;;;5038044;28;20175;-81
2023/07/16 07:07:56;;;;;;;7.63;4.78;;;19.20;99.90;;;;;;5036156;28;20219;-79
2023/07/16 07:10:22;;;;;;;11.63;5.30;;;19.30;99.90;;;;;;5035679;28;20210;-78
2023/07/16 07:12:48;;;;;;;9.95;5.05;;;19.40;99.90;;;;;;5037798;28;20253;-79
2023/07/16 07:15:14;;;;;;;12.00;5.45;;;19.40;99.90;;;;;;5037289;28;20167;-80
2023/07/16 07:17:40;;;;;;;10.32;5.47;;;19.60;99.90;;;;;;5036069;28;20203;-79
2023/07/16 07:20:06;;;;;;;12.88;5.40;;;19.70;99.90;;;;;;5036158;28;20546;-81
2023/07/16 07:22:32;;;;;;;10.85;5.68;;;19.70;99.90;;;;;;5036380;28;20266;-78
2023/07/16 07:24:58;;;;;;;10.43;4.97;;;19.60;99.90;;;;;;5038019;28;20679;-79
2023/07/16 07:27:24;;;;;;;12.63;4.93;;;19.60;99.90;;;;;;5035968;28;20218;-79
2023/07/16 07:29:51;;;;;;;10.90;4.88;;;19.60;99.90;;;;;;5037410;28;20305;-79
2023/07/16 07:32:20;;;;;;;11.10;4.90;;;19.60;99.90;;;;;;5035745;28;20211;-79
2023/07/16 07:34:46;;;;;;;6.53;4.82;;;19.70;99.90;;;;;;5036828;28;20651;-80
2023/07/16 07:37:11;;;;;;;11.25;5.47;;;19.70;99.90;;;;;;5036846;28;20258;-79
2023/07/16 07:39:37;;;;;;;13.25;5.18;;;19.70;99.90;;;;;;5037247;28;20210;-79
2023/07/16 07:42:03;;;;;;;11.73;5.40;;;19.90;99.90;;;;;;5038447;28;20613;-81
2023/07/16 07:44:29;;;;;;;8.77;5.07;;;20.00;99.90;;;;;;5040969;28;20175;-80
2023/07/16 07:46:55;;;;;;;11.93;5.07;;;20.00;99.90;;;;;;5039527;28;20620;-79
2023/07/16 07:49:20;;;;;;;8.00;4.90;;;20.10;99.90;;;;;;5037696;28;20180;-79
2023/07/16 07:51:49;;;;;;;9.20;5.28;;;20.20;99.90;;;;;;5035523;28;20198;-81
2023/07/16 07:54:15;;;;;;;11.80;5.35;;;20.10;99.90;;;;;;5036730;28;20175;-80
2023/07/16 07:56:41;;;;;;;8.73;4.80;;;20.10;99.90;;;;;;5036618;28;20631;-78
2023/07/16 07:59:06;;;;;;;11.52;5.32;;;20.00;99.90;;;;;;5035209;28;20211;-81
2023/07/16 08:01:32;;;;;;;13.88;4.70;;;20.10;99.90;;;;;;5035157;28;20183;-79
2023/07/16 08:03:58;;;;;;;10.77;5.28;;;20.20;99.90;;;;;;5036579;28;20253;-79
2023/07/16 08:06:23;;;;;;;7.05;4.10;;;20.30;99.90;;;;;;5035068;28;20615;-79
2023/07/16 08:08:49;;;;;;;9.90;4.78;;;20.30;99.90;;;;;;5035100;28;20218;-79
2023/07/16 08:11:15;;;;;;;7.38;4.90;;;20.30;99.90;;;;;;5035304;28;20159;-78
2023/07/16 08:13:41;;;;;;;6.40;4.88;;;20.50;99.90;;;;;;5034789;28;20554;-80
2023/07/16 08:16:06;;;;;;;8.48;5.05;;;20.60;99.90;;;;;;5034993;28;20233;-79
2023/07/16 08:18:32;;;;;;;10.73;4.80;;;20.60;99.90;;;;;;5035233;28;20206;-79
2023/07/16 08:20:58;;;;;;;15.25;4.60;;;20.50;99.90;;;;;;5035183;28;20183;-79
2023/07/16 08:23:23;;;;;;;11.35;4.88;;;20.50;99.90;;;;;;5036369;28;20179;-79
2023/07/16 08:25:50;;;;;;;11.07;5.10;;;20.50;99.90;;;;;;5038094;28;20158;-79
2023/07/16 08:28:16;;;;;;;7.95;4.40;;;20.50;99.90;;;;;;5035689;28;20210;-79
2023/07/16 08:30:42;;;;;;;10.73;4.28;;;20.50;99.90;;;;;;5036559;28;20177;-78
2023/07/16 08:33:07;;;;;;;10.15;5.00;;;20.70;99.90;;;;;;5036042;28;20658;-79
2023/07/16 08:35:34;;;;;;;7.78;5.05;;;21.00;99.90;;;;;;5035075;28;20265;-79
2023/07/16 08:38:00;;;;;;;8.25;4.70;;;21.60;99.90;;;;;;5035323;28;20203;-80
2023/07/16 08:40:27;;;;;;;11.45;4.93;;;22.60;99.90;;;;;;5038079;28;20187;-80
2023/07/16 08:42:54;;;;;;;9.75;4.15;;;23.20;99.90;;;;;;5034851;28;20375;-79
2023/07/16 08:45:23;;;;;;;9.45;4.38;;;23.30;99.90;;;;;;5035655;28;20632;-80
2023/07/16 08:47:49;;;;;;;10.85;4.82;;;23.40;99.90;;;;;;5035663;28;20675;-80
2023/07/16 08:50:16;;;;;;;7.20;4.10;;;23.10;99.90;;;;;;5036437;28;20164;-80
2023/07/16 08:52:43;;;;;;;7.68;4.32;;;23.00;99.90;;;;;;5036401;28;20171;-81
2023/07/16 08:55:08;;;;;;;10.40;4.53;;;22.60;99.90;;;;;;5036006;28;20198;-79
2023/07/16 08:57:35;;;;;;;8.10;4.50;;;22.80;99.90;;;;;;5035376;28;20206;-80
2023/07/16 09:00:02;;;;;;;7.70;4.32;;;22.80;99.90;;;;;;5036915;28;20171;-78
2023/07/16 09:02:28;;;;;;;8.43;4.40;;;22.10;99.90;;;;;;5034697;28;20224;-78
2023/07/16 09:04:54;;;;;;;6.32;4.28;;;21.80;99.90;;;;;;5035057;28;20261;-79
2023/07/16 09:07:20;;;;;;;9.40;4.22;;;22.10;99.90;;;;;;5033787;28;20219;-78
2023/07/16 09:09:58;;;;;;;10.15;4.70;;;22.70;99.90;;;;;;5034758;28;20171;-78
2023/07/16 09:12:24;;;;;;;10.95;4.88;;;22.60;99.90;;;;;;5035644;28;20171;-79
2023/07/16 09:14:50;;;;;;;7.95;4.60;;;22.60;99.90;;;;;;5033865;28;20186;-78
2023/07/16 09:17:24;;;;;;;14.43;5.10;;;22.40;99.90;;;;;;5033798;28;20195;-79
2023/07/16 09:19:53;;;;;;;10.88;4.60;;;22.50;99.90;;;;;;5035309;28;20169;-78
2023/07/16 09:22:20;;;;;;;8.75;4.00;;;22.70;99.90;;;;;;5035145;28;20190;-78
2023/07/16 09:24:47;;;;;;;8.63;4.10;;;23.00;99.90;;;;;;5034368;28;20179;-78
2023/07/16 09:27:13;;;;;;;7.13;4.05;;;22.60;99.90;;;;;;5033706;28;20234;-79
2023/07/16 09:29:39;;;;;;;8.45;4.55;;;22.50;99.90;;;;;;5033830;28;20611;-79
2023/07/16 09:32:05;;;;;;;6.13;4.30;;;22.30;99.90;;;;;;5035128;28;20209;-79
2023/07/16 09:34:32;;;;;;;8.25;4.63;;;22.40;99.90;;;;;;5033683;28;20182;-77
2023/07/16 09:36:59;;;;;;;9.45;4.53;;;22.70;99.90;;;;;;5033796;28;20199;-79
2023/07/16 09:39:26;;;;;;;9.10;4.55;;;22.90;99.90;;;;;;5034496;28;20187;-78
2023/07/16 09:41:52;;;;;;;11.95;5.05;;;22.70;99.90;;;;;;5034747;28;20249;-78
2023/07/16 09:44:18;;;;;;;11.00;4.97;;;22.90;99.90;;;;;;5033388;28;20187;-79
2023/07/16 09:46:45;;;;;;;8.85;4.00;;;23.10;99.90;;;;;;5035049;28;20183;-79
2023/07/16 09:49:11;;;;;;;14.15;4.10;;;23.10;99.90;;;;;;5035190;28;20270;-78
2023/07/16 09:51:39;;;;;;;7.97;4.43;;;23.00;99.90;;;;;;5035266;28;20171;-78
2023/07/16 09:54:05;;;;;;;6.88;4.53;;;23.00;99.90;;;;;;5033927;28;20194;-79
2023/07/16 09:56:48;;;;;;;9.20;4.47;;;23.40;99.90;;;;;;5035690;28;20174;-78
2023/07/16 09:59:16;;;;;;;6.78;4.07;;;23.60;99.90;;;;;;5033795;28;20266;-78
2023/07/16 10:01:42;;;;;;;7.18;4.32;;;23.60;99.90;;;;;;5035411;28;20171;-79
2023/07/16 10:04:16;;;;;;;9.45;4.28;;;23.60;99.90;;;;;;5035173;28;20163;-78
2023/07/16 10:06:56;;;;;;;9.55;4.25;;;23.50;99.90;;;;;;5033925;28;20234;-78
2023/07/16 10:09:42;;;;;;;6.43;3.88;;;23.40;99.90;;;;;;5035580;28;20186;-79
2023/07/16 10:12:10;;;;;;;6.78;4.15;;;23.60;99.90;;;;;;5034058;28;20581;-75
2023/07/16 10:14:44;;;;;;;8.73;4.57;;;23.60;99.90;;;;;;5033499;28;20179;-76
2023/07/16 10:17:17;;;;;;;6.93;4.35;;;23.20;99.90;;;;;;5038213;28;20667;-77
2023/07/16 10:19:50;;;;;;;7.75;4.15;;;23.10;99.90;;;;;;5037725;28;20229;-77
2023/07/16 10:22:15;;;;;;;7.03;4.43;;;22.60;99.90;;;;;;5037242;28;20176;-76
2023/07/16 10:24:41;;;;;;;6.10;4.30;;;22.70;99.90;;;;;;5038395;28;20244;-76
2023/07/16 10:27:07;;;;;;;7.97;4.72;;;23.20;99.90;;;;;;5038311;28;20268;-77
2023/07/16 10:29:33;;;;;;;9.13;4.60;;;23.60;99.90;;;;;;5035996;28;20187;-77
2023/07/16 10:31:59;;;;;;;8.85;4.40;;;24.00;99.90;;;;;;5038379;28;20171;-77
2023/07/16 10:34:26;;;;;;;7.30;4.32;;;24.10;99.90;;;;;;5038761;28;20175;-76
2023/07/16 10:36:52;;;;;;;6.88;4.43;;;24.30;99.90;;;;;;5037169;28;20666;-76
2023/07/16 10:39:18;;;;;;;7.32;4.55;;;24.00;99.90;;;;;;5038419;28;20191;-76
2023/07/16 10:41:44;;;;;;;6.55;4.40;;;23.90;99.90;;;;;;5037168;28;20266;-76
2023/07/16 10:44:11;;;;;;;7.53;3.90;;;23.70;99.90;;;;;;5039460;28;20171;-77
2023/07/16 10:46:37;;;;;;;7.40;3.72;;;23.70;99.90;;;;;;5044501;28;20248;-76
2023/07/16 10:49:03;;;;;;;5.80;4.03;;;23.40;99.90;;;;;;5042206;28;20195;-79
2023/07/16 10:51:29;;;;;;;6.63;4.28;;;23.20;99.90;;;;;;5041023;28;20175;-79
2023/07/16 10:53:56;;;;;;;9.02;4.30;;;23.20;99.90;;;;;;5040876;28;20175;-79
2023/07/16 10:56:22;;;;;;;6.30;4.03;;;23.20;99.90;;;;;;5040083;28;20743;-79
2023/07/16 10:58:48;;;;;;;7.90;4.50;;;23.20;99.90;;;;;;5040207;28;20226;-79
2023/07/16 11:01:15;;;;;;;9.02;4.72;;;23.40;99.90;;;;;;5039716;28;20651;-78
2023/07/16 11:03:40;;;;;;;9.77;3.90;;;23.60;99.90;;;;;;5039640;28;20179;-80
2023/07/16 11:06:08;;;;;;;7.18;3.60;;;23.60;99.90;;;;;;5038648;28;20215;-80
2023/07/16 11:08:34;;;;;;;7.85;3.75;;;23.30;99.90;;;;;;5038286;28;20646;-78
2023/07/16 11:10:59;;;;;;;5.57;4.07;;;23.20;99.90;;;;;;5038906;28;20191;-79
2023/07/16 11:13:31;;;;;;;6.68;4.00;;;23.10;99.90;;;;;;5036594;28;20705;-79
2023/07/16 11:15:57;;;;;;;8.48;3.83;;;23.30;99.90;;;;;;5038019;28;20249;-80
2023/07/16 11:18:24;;;;;;;6.28;3.90;;;23.80;99.90;;;;;;5040970;28;20278;-79
2023/07/16 11:20:53;;;;;;;5.00;3.50;;;24.20;99.90;;;;;;5040606;28;20185;-78
2023/07/16 11:23:19;;;;;;;5.43;3.53;;;24.40;99.90;;;;;;5039787;28;20512;-79
2023/07/16 11:25:49;;;;;;;5.85;3.40;;;24.20;99.90;;;;;;5040054;28;20179;-81
2023/07/16 11:28:15;;;;;;;7.10;3.40;;;24.10;99.90;;;;;;5039913;28;20199;-80
2023/07/16 11:30:41;;;;;;;9.75;3.78;;;23.70;99.90;;;;;;5040907;28;20175;-79
2023/07/16 11:33:11;;;;;;;7.10;3.47;;;23.40;99.90;;;;;;5040023;28;20175;-79
2023/07/16 11:35:38;;;;;;;6.32;3.50;;;23.30;99.90;;;;;;5039698;28;20175;-79
2023/07/16 11:38:07;;;;;;;3.55;2.80;;;23.20;99.90;;;;;;5040914;28;20570;-79
2023/07/16 11:40:36;;;;;;;8.68;4.13;;;23.10;99.90;;;;;;5042386;28;20175;-80
2023/07/16 11:43:12;;;;;;;4.53;3.10;;;23.10;99.90;;;;;;5037897;28;20167;-80
2023/07/16 11:45:38;;;;;;;6.50;3.65;;;23.10;99.90;;;;;;5035391;28;20182;-80
2023/07/16 11:48:04;;;;;;;7.07;3.67;;;23.00;99.90;;;;;;5036606;28;20207;-78
2023/07/16 11:50:31;;;;;;;7.28;3.33;;;23.10;99.90;;;;;;5035913;28;20221;-79
2023/07/16 11:53:01;;;;;;;4.43;3.00;;;23.10;99.90;;;;;;5040186;28;20172;-78
2023/07/16 11:55:27;;;;;;;7.70;3.65;;;22.90;99.90;;;;;;5037241;28;20221;-78
2023/07/16 11:57:53;;;;;;;6.00;3.58;;;22.90;99.90;;;;;;5036986;28;20206;-77
2023/07/16 12:00:19;;;;;;;7.07;3.28;;;22.90;99.90;;;;;;5038331;28;20175;-78
2023/07/16 12:02:50;;;;;;;6.85;3.38;;;23.00;99.90;;;;;;5038181;28;20252;-77
2023/07/16 12:05:20;;;;;;;8.55;3.53;;;23.10;99.90;;;;;;5036263;28;20172;-77
2023/07/16 12:07:46;;;;;;;6.35;3.47;;;23.40;99.90;;;;;;5042977;28;20210;-78
2023/07/16 12:10:12;;;;;;;6.65;3.40;;;23.50;99.90;;;;;;5056893;28;20181;-78
2023/07/16 12:12:38;;;;;;;7.50;3.33;;;23.40;99.90;;;;;;5055880;28;20174;-78
2023/07/16 12:15:05;;;;;;;10.60;3.97;;;23.40;99.90;;;;;;5056412;28;20587;-78
2023/07/16 12:17:30;;;;;;;5.45;3.50;;;23.30;99.90;;;;;;5056358;28;20224;-77
2023/07/16 12:19:56;;;;;;;4.80;3.25;;;23.20;99.90;;;;;;5056360;28;20178;-78
2023/07/16 12:22:23;;;;;;;4.90;3.30;;;23.30;99.90;;;;;;5056020;28;20175;-79
2023/07/16 12:24:49;;;;;;;7.88;3.10;;;23.40;99.90;;;;;;5056211;28;20224;-77
2023/07/16 12:27:16;;;;;;;6.97;3.30;;;23.60;99.90;;;;;;5055503;28;20698;-78
2023/07/16 12:29:42;;;;;;;6.38;3.35;;;23.60;99.90;;;;;;5057955;28;20174;-78
2023/07/16 12:32:08;;;;;;;5.07;3.38;;;23.60;99.90;;;;;;5055018;28;20175;-78
2023/07/16 12:34:34;;;;;;;6.13;3.95;;;23.40;99.90;;;;;;5055279;28;20697;-79
2023/07/16 12:37:00;;;;;;;6.15;3.75;;;23.40;99.90;;;;;;5057031;28;20202;-79
2023/07/16 12:39:26;;;;;;;8.13;3.80;;;23.80;99.90;;;;;;5039057;28;20190;-78
2023/07/16 12:41:51;;;;;;;6.03;4.10;;;23.80;99.90;;;;;;5038573;28;20244;-79
2023/07/16 12:44:17;;;;;;;10.05;3.80;;;23.70;99.90;;;;;;5037418;28;20592;-79
2023/07/16 12:46:43;;;;;;;9.32;4.13;;;23.70;99.90;;;;;;5037854;28;20244;-78